Time;durP1;ratioP1;P1;durP2;ratioP2;P2;SDS_P1;SDS_P2;PMS_P1;PMS_P2;Temp;Humidity;BMP_temperature;BMP_pressure;BME280_temperature;BME280_humidity;BME280_pressure;Samples;Min_cycle;Max_cycle;Signal;HPM_P1;HPM_P2
2022/06/16 00:00:28;;;;;;;;;9.00;8.50;;;;;26.25;48.23;101433.78;5079248;28;46311;-83
2022/06/16 00:02:53;;;;;;;;;8.75;8.00;;;;;26.06;47.98;101403.88;5078332;27;45228;-82
2022/06/16 00:05:27;;;;;;;;;10.00;9.00;;;;;26.23;49.46;101445.34;5078310;27;45299;-83
2022/06/16 00:07:52;;;;;;;;;9.75;9.00;;;;;26.15;49.23;101445.41;5078717;28;45306;-82
2022/06/16 00:10:19;;;;;;;;;9.50;8.50;;;;;26.05;49.99;101438.41;5078264;28;45871;-82
2022/06/16 00:12:45;;;;;;;;;12.00;9.25;;;;;26.04;50.19;101449.91;5078387;27;45772;-82
2022/06/16 00:15:13;;;;;;;;;9.00;9.00;;;;;25.96;50.80;101453.53;5077295;28;45272;-82
2022/06/16 00:17:39;;;;;;;;;10.75;10.75;;;;;25.88;51.07;101454.47;5083480;28;45529;-83
2022/06/16 00:20:07;;;;;;;;;10.00;9.00;;;;;25.84;51.29;101452.72;5081203;28;45330;-82
2022/06/16 00:22:33;;;;;;;;;10.00;9.25;;;;;25.64;51.67;101436.09;5078904;28;45280;-83
2022/06/16 00:24:59;;;;;;;;;9.25;8.00;;;;;25.71;51.69;101455.47;5076944;27;45439;-82
2022/06/16 00:27:25;;;;;;;;;9.00;9.00;;;;;25.63;52.51;101458.22;5078260;28;45663;-82
2022/06/16 00:29:50;;;;;;;;;11.50;9.50;;;;;25.63;53.01;101462.63;5078910;28;46039;-82
2022/06/16 00:32:17;;;;;;;;;9.00;9.00;;;;;25.60;52.63;101462.63;5060894;28;45455;-83
2022/06/16 00:34:42;;;;;;;;;9.25;9.25;;;;;25.50;52.84;101454.75;5079320;28;45374;-83
2022/06/16 00:37:08;;;;;;;;;10.75;9.50;;;;;25.51;52.67;101455.66;5078611;28;45565;-83
2022/06/16 00:39:34;;;;;;;;;10.50;10.00;;;;;25.53;53.46;101466.22;5079033;28;47600;-84
2022/06/16 00:42:14;;;;;;;;;11.25;11.00;;;;;25.49;53.25;101462.72;5086190;28;45385;-82
2022/06/16 00:44:43;;;;;;;;;11.50;10.00;;;;;25.46;53.91;101468.03;5083080;28;45356;-82
2022/06/16 00:47:09;;;;;;;;;11.00;10.00;;;;;25.46;54.31;101474.25;5086904;27;45480;-83
2022/06/16 00:49:38;;;;;;;;;10.50;9.25;;;;;25.42;54.40;101461.03;5063953;28;45688;-82
2022/06/16 00:52:11;;;;;;;;;10.75;10.50;;;;;25.34;54.79;101461.91;5078894;28;45674;-83
2022/06/16 00:54:43;;;;;;;;;11.50;9.00;;;;;25.29;54.58;101462.81;5077867;28;45259;-83
2022/06/16 00:57:14;;;;;;;;;10.25;9.00;;;;;25.27;54.85;101470.78;5059579;28;45607;-83
2022/06/16 00:59:43;;;;;;;;;10.00;10.00;;;;;25.32;55.46;101479.56;5077636;27;46134;-82
2022/06/16 01:02:09;;;;;;;;;9.00;9.00;;;;;25.26;55.36;101484.06;5076718;28;45429;-83
2022/06/16 01:04:53;;;;;;;;;9.50;9.50;;;;;25.21;55.85;101493.78;5085432;28;45265;-83
2022/06/16 01:07:27;;;;;;;;;12.50;12.50;;;;;25.09;56.45;101486.78;5096836;28;45433;-82
2022/06/16 01:09:54;;;;;;;;;9.00;9.00;;;;;25.11;56.63;101495.59;5075178;28;47226;-82
2022/06/16 01:16:05;;;;;;;;;9.50;9.25;;;;;24.86;56.55;101493.06;5078003;28;45225;-83
2022/06/16 01:19:09;;;;;;;;;11.00;9.00;;;;;24.86;57.61;101508.97;5082864;27;45270;-82
2022/06/16 01:21:44;;;;;;;;;11.75;9.50;;;;;24.88;57.79;101512.50;5076662;28;47282;-83
2022/06/16 01:24:47;;;;;;;;;11.75;9.50;;;;;24.85;57.41;101512.50;5058475;28;45682;-83
2022/06/16 01:27:43;;;;;;;;;11.25;10.00;;;;;24.83;58.12;101519.56;5076990;28;45419;-83
2022/06/16 01:30:14;;;;;;;;;13.00;10.00;;;;;24.73;58.61;101516.94;5058589;28;45533;-82
2022/06/16 01:32:45;;;;;;;;;11.50;11.50;;;;;24.72;58.28;101523.13;5077106;28;45327;-83
2022/06/16 01:35:28;;;;;;;;;10.25;9.25;;;;;24.73;58.79;101526.63;5075479;28;45763;-83
2022/06/16 01:38:04;;;;;;;;;11.00;10.50;;;;;24.62;58.35;101509.91;5080432;28;45272;-83
2022/06/16 01:40:36;;;;;;;;;11.25;10.00;;;;;24.65;58.21;101521.34;5087238;28;45473;-83
2022/06/16 01:43:25;;;;;;;;;9.25;9.25;;;;;24.63;58.72;101533.72;5085395;28;45466;-83
2022/06/16 01:46:04;;;;;;;;;8.25;8.25;;;;;24.52;58.72;101535.50;5087721;28;45754;-83
2022/06/16 01:48:33;;;;;;;;;10.50;9.25;;;;;24.38;59.42;101517.00;5080633;28;45493;-83
2022/06/16 01:51:09;;;;;;;;;10.00;9.00;;;;;24.42;60.14;101540.81;5078158;28;45384;-82
2022/06/16 01:53:56;;;;;;;;;9.75;9.75;;;;;24.32;59.73;101525.81;5077004;28;45457;-82
2022/06/16 01:56:40;;;;;;;;;11.00;10.50;;;;;24.30;59.48;101521.41;5076408;28;45240;-82
2022/06/16 01:59:15;;;;;;;;;10.50;10.25;;;;;24.30;60.10;101532.88;5076866;27;45291;-82
2022/06/16 02:01:47;;;;;;;;;13.00;11.75;;;;;24.29;59.99;101536.41;5077070;28;45330;-83
2022/06/16 02:04:56;;;;;;;;;15.50;10.75;;;;;24.35;59.96;101554.03;5058479;28;47376;-83
2022/06/16 02:07:27;;;;;;;;;9.75;9.75;;;;;24.29;60.53;101552.28;5076014;28;45221;-82
2022/06/16 02:09:59;;;;;;;;;11.00;10.75;;;;;24.29;60.61;101554.06;5078757;27;45424;-82
2022/06/16 02:15:25;;;;;;;;;9.50;9.50;;;;;24.13;61.30;101546.09;5082153;28;45786;-83
2022/06/16 02:17:55;;;;;;;;;12.75;11.75;;;;;24.13;61.19;101551.41;5081989;28;45460;-83
2022/06/16 02:20:21;;;;;;;;;11.25;10.50;;;;;24.19;61.26;101558.47;5081270;28;45295;-83
2022/06/16 02:22:47;;;;;;;;;11.50;10.00;;;;;24.15;60.85;101546.09;5080439;28;45432;-83
2022/06/16 02:25:12;;;;;;;;;10.00;10.00;;;;;24.14;61.11;101552.25;5079445;28;45960;-83
2022/06/16 02:27:38;;;;;;;;;11.25;10.00;;;;;24.19;60.69;101556.69;5061691;28;45486;-82
2022/06/16 02:30:04;;;;;;;;;11.50;10.50;;;;;24.18;61.38;101552.28;5080223;27;45346;-83
2022/06/16 02:32:59;;;;;;;;;11.75;10.25;;;;;24.10;61.06;101547.00;5080020;28;45308;-83
2022/06/16 02:35:37;;;;;;;;;10.50;10.50;;;;;24.12;61.74;101554.91;5078944;27;45421;-82
2022/06/16 02:38:21;;;;;;;;;11.75;10.50;;;;;24.08;61.76;101551.41;5079384;27;45295;-83
2022/06/16 02:40:58;;;;;;;;;11.75;11.00;;;;;23.99;61.91;101561.97;5085341;28;45320;-82
2022/06/16 02:43:39;;;;;;;;;11.50;11.25;;;;;23.92;62.25;101562.78;5084789;28;45537;-82
2022/06/16 02:46:40;;;;;;;;;16.25;12.00;;;;;23.88;62.52;101566.34;5088704;28;45329;-83
2022/06/16 02:49:14;;;;;;;;;12.00;12.00;;;;;23.76;62.83;101568.06;5082738;27;45744;-82
2022/06/16 02:52:09;;;;;;;;;12.50;12.50;;;;;23.69;63.32;101570.69;5083945;28;45253;-87
2022/06/16 02:55:03;;;;;;;;;10.25;10.25;;;;;23.65;63.58;101565.41;5087873;27;45330;-86
2022/06/16 02:57:50;;;;;;;;;10.75;10.50;;;;;23.61;63.52;101570.66;5096393;28;45262;-88
2022/06/16 03:00:27;;;;;;;;;10.50;10.50;;;;;23.48;63.31;101552.16;5069196;28;46177;-89
2022/06/16 03:02:52;;;;;;;;;10.75;10.00;;;;;23.60;63.55;101568.91;5081282;28;45382;-86
2022/06/16 03:05:18;;;;;;;;;13.00;11.00;;;;;23.53;63.71;101556.56;5080461;28;45574;-88
2022/06/16 03:07:45;;;;;;;;;14.50;13.00;;;;;23.59;63.63;101575.97;5079954;27;46157;-87
2022/06/16 03:10:14;;;;;;;;;13.00;13.00;;;;;23.43;64.36;101561.81;5079685;28;45847;-87
2022/06/16 03:12:40;;;;;;;;;10.50;10.25;;;;;23.43;64.05;101568.88;5083848;28;45226;-88
2022/06/16 03:15:06;;;;;;;;;17.50;13.25;;;;;23.36;64.48;101569.72;5088708;27;45343;-80
2022/06/16 03:17:32;;;;;;;;;20.00;13.25;;;;;23.33;64.75;101575.88;5091798;28;46105;-86
2022/06/16 03:19:58;;;;;;;;;16.25;13.25;;;;;23.31;64.40;101589.09;5090935;27;45426;-90
2022/06/16 03:22:24;;;;;;;;;18.25;16.25;;;;;23.27;65.04;101589.94;5085662;27;45291;-88
2022/06/16 03:24:50;;;;;;;;;14.25;13.00;;;;;23.27;64.72;101592.59;5086838;28;45504;-87
2022/06/16 03:27:16;;;;;;;;;12.25;11.00;;;;;23.26;64.91;101596.09;5087893;28;45438;-82
2022/06/16 03:29:42;;;;;;;;;13.25;13.25;;;;;23.16;64.99;101584.56;5095496;28;45415;-82
2022/06/16 03:32:08;;;;;;;;;14.75;14.00;;;;;23.15;65.02;101581.91;5084034;27;45323;-85
2022/06/16 03:34:34;;;;;;;;;12.50;12.00;;;;;23.23;65.17;101604.00;5084464;27;45352;-86
2022/06/16 03:37:00;;;;;;;;;17.25;13.00;;;;;23.18;65.19;101592.50;5085751;27;45307;-85
2022/06/16 03:39:26;;;;;;;;;16.25;14.75;;;;;23.19;64.70;101604.88;5084699;28;45692;-84
2022/06/16 03:41:51;;;;;;;;;17.25;14.75;;;;;23.09;64.45;101593.34;5091773;28;45296;-80
2022/06/16 03:44:17;;;;;;;;;15.25;13.75;;;;;23.12;64.50;101598.66;5100730;28;44856;-85
2022/06/16 03:46:43;;;;;;;;;15.75;13.00;;;;;23.03;64.73;101580.97;5097288;27;45331;-84
2022/06/16 03:49:09;;;;;;;;;15.25;13.50;;;;;23.01;64.64;101580.09;5083807;28;45326;-86
2022/06/16 03:51:35;;;;;;;;;14.25;12.25;;;;;23.09;64.50;101595.13;5084024;27;45342;-86
2022/06/16 03:54:00;;;;;;;;;17.50;13.00;;;;;23.09;64.23;101592.47;5083872;28;45371;-88
2022/06/16 03:56:26;;;;;;;;;15.75;13.75;;;;;23.10;64.86;101596.88;5079490;27;46295;-87
2022/06/16 03:58:54;;;;;;;;;16.50;15.25;;;;;23.05;64.68;101599.50;5077633;28;45492;-87
2022/06/16 04:01:20;;;;;;;;;12.50;11.50;;;;;22.94;64.24;101591.50;5079674;27;45262;-89
2022/06/16 04:04:01;;;;;;;;;14.50;13.00;;;;;22.98;64.43;101610.88;5079177;28;45881;-88
2022/06/16 04:06:33;;;;;;;;;13.25;13.00;;;;;22.81;64.65;101592.28;5079388;28;46176;-88
2022/06/16 04:08:59;;;;;;;;;13.25;12.00;;;;;22.94;65.05;101617.03;5079061;27;45361;-88
2022/06/16 04:11:27;;;;;;;;;12.00;11.25;;;;;22.90;64.97;101609.97;5079422;27;45422;-85
2022/06/16 04:14:09;;;;;;;;;12.50;11.75;;;;;22.91;64.63;101615.25;5086455;27;45247;-87
2022/06/16 04:16:37;;;;;;;;;15.25;12.50;;;;;22.91;65.23;101614.38;5086058;28;47125;-87
2022/06/16 04:19:04;;;;;;;;;13.00;12.00;;;;;22.84;64.79;101603.75;5082356;28;45232;-87
2022/06/16 04:21:30;;;;;;;;;16.25;14.00;;;;;22.81;65.19;101613.41;5079251;27;45228;-87
2022/06/16 04:23:56;;;;;;;;;15.25;14.00;;;;;22.75;65.78;101614.25;5078268;28;45912;-87
2022/06/16 04:26:22;;;;;;;;;16.75;13.50;;;;;22.68;65.78;101610.69;5080384;27;45925;-84
2022/06/16 04:28:48;;;;;;;;;12.75;12.50;;;;;22.62;65.89;101615.06;5061979;28;45346;-85
2022/06/16 04:31:15;;;;;;;;;14.00;13.00;;;;;22.55;65.81;101622.91;5086603;27;45473;-84
2022/06/16 04:33:41;;;;;;;;;13.00;13.00;;;;;22.64;66.55;101632.66;5087099;28;45323;-83
2022/06/16 04:36:08;;;;;;;;;15.25;14.25;;;;;22.46;66.31;101628.13;5062745;28;45562;-81
2022/06/16 04:38:33;;;;;;;;;14.25;13.75;;;;;22.43;66.55;101628.06;5083945;28;45222;-83
2022/06/16 04:40:59;;;;;;;;;15.25;14.00;;;;;22.34;66.51;101617.41;5082634;28;45430;-80
2022/06/16 04:43:26;;;;;;;;;14.25;13.50;;;;;22.48;66.64;101643.94;5079793;27;45510;-82
2022/06/16 04:45:52;;;;;;;;;13.75;12.00;;;;;22.46;66.62;101653.63;5080146;27;45983;-83
2022/06/16 04:48:18;;;;;;;;;16.75;15.25;;;;;22.41;66.66;101651.81;5081051;27;45291;-79
2022/06/16 04:50:43;;;;;;;;;15.25;14.25;;;;;22.29;66.80;101632.34;5078458;27;45303;-80
2022/06/16 04:53:10;;;;;;;;;17.25;13.25;;;;;22.30;66.84;101637.63;5078185;28;45431;-81
2022/06/16 04:55:35;;;;;;;;;16.00;14.25;;;;;22.34;66.71;101649.06;5076521;28;47525;-81
2022/06/16 04:58:06;;;;;;;;;15.50;13.50;;;;;22.33;67.03;101645.56;5078270;28;45287;-81
2022/06/16 05:00:34;;;;;;;;;15.50;15.25;;;;;22.36;67.28;101649.97;5078159;27;45363;-82
2022/06/16 05:03:01;;;;;;;;;17.25;14.75;;;;;22.41;67.22;101666.75;5078370;28;45505;-81
2022/06/16 05:05:27;;;;;;;;;20.00;16.00;;;;;22.41;67.80;101672.03;5078668;28;45330;-84
2022/06/16 05:07:53;;;;;;;;;17.00;16.00;;;;;22.41;67.22;101674.66;5077589;27;45192;-85
2022/06/16 05:10:18;;;;;;;;;16.75;14.00;;;;;22.35;67.04;101659.63;5077902;27;45241;-87
2022/06/16 05:12:44;;;;;;;;;14.75;13.50;;;;;22.41;67.15;101670.28;5085711;27;45228;-86
2022/06/16 05:15:10;;;;;;;;;17.25;15.00;;;;;22.45;66.73;101681.75;5085904;28;45243;-84
2022/06/16 05:17:37;;;;;;;;;14.50;14.50;;;;;22.42;66.95;101681.72;5091947;28;45210;-85
2022/06/16 05:20:06;;;;;;;;;16.50;14.25;;;;;22.42;66.93;101681.72;5069814;28;45485;-88
2022/06/16 05:22:33;;;;;;;;;17.50;16.00;;;;;22.46;66.88;101680.03;5082211;27;45334;-87
2022/06/16 05:24:59;;;;;;;;;13.25;13.00;;;;;22.44;66.59;101684.41;5085958;28;46492;-86
2022/06/16 05:27:24;;;;;;;;;17.25;16.00;;;;;22.53;66.67;101705.59;5086931;28;45171;-84
2022/06/16 05:29:50;;;;;;;;;18.75;16.00;;;;;22.47;66.73;101709.06;5087808;27;45282;-86
2022/06/16 05:32:16;;;;;;;;;20.25;18.00;;;;;22.43;66.62;101701.97;5086959;28;45447;-85
2022/06/16 05:34:42;;;;;;;;;16.50;16.50;;;;;22.47;66.27;101718.72;5089553;27;45606;-85
2022/06/16 05:37:08;;;;;;;;;16.00;15.00;;;;;22.43;66.77;101728.34;5086773;27;45870;-86
2022/06/16 05:39:34;;;;;;;;;16.50;16.50;;;;;22.38;66.94;101717.72;5081365;27;45402;-87
2022/06/16 05:41:59;;;;;;;;;14.75;14.50;;;;;22.37;67.02;101723.84;5086009;27;45302;-85
2022/06/16 05:44:25;;;;;;;;;16.75;14.75;;;;;22.32;67.10;101724.69;5064668;28;46750;-82
2022/06/16 05:46:51;;;;;;;;;18.50;17.00;;;;;22.24;67.11;101720.22;5081802;27;45393;-79
2022/06/16 05:49:18;;;;;;;;;16.00;15.00;;;;;22.35;67.17;101744.06;5082870;27;45319;-84
2022/06/16 05:51:44;;;;;;;;;19.00;18.25;;;;;22.37;67.49;101738.81;5095908;28;44821;-78
2022/06/16 05:54:10;;;;;;;;;17.75;14.50;;;;;22.35;67.28;101735.28;5078015;27;45543;-78
2022/06/16 05:56:36;;;;;;;;;18.75;18.00;;;;;22.39;67.20;101742.38;5076800;27;45337;-78
2022/06/16 05:59:02;;;;;;;;;18.00;17.25;;;;;22.36;67.55;101752.88;5076590;27;45487;-78
2022/06/16 06:01:28;;;;;;;;;15.75;14.50;;;;;22.29;67.17;101735.22;5081790;28;46011;-88
2022/06/16 06:03:54;;;;;;;;;13.25;13.25;;;;;22.31;67.24;101737.00;5076382;27;45444;-75
2022/06/16 06:06:19;;;;;;;;;19.75;16.50;;;;;22.35;67.29;101744.06;5077243;28;45476;-80
2022/06/16 06:17:13;;;;;;;;;16.75;14.75;;;;;22.46;66.44;101754.78;5078089;28;45428;-79
2022/06/16 06:19:38;;;;;;;;;18.00;18.00;;;;;22.48;66.55;101749.50;5038196;28;45316;-74
2022/06/16 06:22:14;;;;;;;;;19.75;16.25;;;;;22.59;66.33;101757.56;5082654;27;45750;-77
2022/06/16 06:24:42;;;;;;;;;18.75;17.00;;;;;22.49;66.20;101754.81;5080242;27;47723;-76
2022/06/16 06:27:11;;;;;;;;;16.50;15.00;;;;;22.59;65.98;101771.63;5084045;27;45359;-79
2022/06/16 06:29:36;;;;;;;;;15.50;15.50;;;;;22.59;66.00;101768.09;5072450;27;45909;-78
2022/06/16 06:32:03;;;;;;;;;16.75;15.50;;;;;22.63;65.87;101773.44;5097256;27;45492;-78
2022/06/16 06:34:29;;;;;;;;;17.00;15.50;;;;;22.68;65.87;101781.41;5096055;27;47268;-79
2022/06/16 06:36:55;;;;;;;;;14.50;14.25;;;;;22.69;65.20;101775.25;5082763;27;45227;-78
2022/06/16 06:39:23;;;;;;;;;16.50;15.00;;;;;22.72;64.62;101778.78;5060557;28;45383;-81
2022/06/16 06:41:49;;;;;;;;;18.00;17.75;;;;;22.76;64.55;101785.00;5077438;27;45237;-78
2022/06/16 06:44:15;;;;;;;;;20.00;18.00;;;;;22.77;63.90;101786.75;5074790;27;46200;-78
2022/06/16 06:46:41;;;;;;;;;16.50;14.75;;;;;22.79;63.92;101781.47;5057282;28;45772;-78
2022/06/16 06:49:07;;;;;;;;;19.25;16.00;;;;;22.82;63.21;101790.34;5073125;27;45641;-78
2022/06/16 06:51:33;;;;;;;;;16.00;16.00;;;;;22.78;63.08;101785.03;5083474;27;45460;-78
2022/06/16 06:54:00;;;;;;;;;15.00;14.00;;;;;22.83;62.65;101793.84;5081324;27;46664;-79
2022/06/16 06:56:28;;;;;;;;;15.00;13.25;;;;;22.87;62.57;101803.59;5075392;27;45405;-79
2022/06/16 06:58:56;;;;;;;;;17.00;12.75;;;;;22.79;62.07;101777.09;5058030;28;45454;-78
2022/06/16 07:01:22;;;;;;;;;15.25;13.50;;;;;22.84;62.06;101778.00;5076280;27;45268;-79
2022/06/16 07:03:49;;;;;;;;;14.75;13.25;;;;;22.94;61.34;101801.91;5082268;27;45414;-77
2022/06/16 07:06:16;;;;;;;;;18.00;15.00;;;;;22.99;61.23;101801.06;5081494;28;45206;-78
2022/06/16 07:08:42;;;;;;;;;14.00;13.50;;;;;22.98;60.75;101794.00;5079184;27;45422;-80
2022/06/16 07:11:07;;;;;;;;;15.25;13.75;;;;;23.06;60.98;101803.75;5065992;27;45497;-81
2022/06/16 07:13:33;;;;;;;;;18.50;12.25;;;;;23.11;60.27;101808.19;5087695;27;46030;-78
2022/06/16 07:15:59;;;;;;;;;12.00;11.50;;;;;23.14;59.70;101818.81;5067105;28;45346;-78
2022/06/16 07:18:24;;;;;;;;;14.50;13.00;;;;;23.16;59.41;101814.41;5103563;27;45457;-77
2022/06/16 07:20:51;;;;;;;;;14.75;12.25;;;;;23.21;59.12;101834.72;5104530;27;45522;-77
2022/06/16 07:23:19;;;;;;;;;13.00;10.50;;;;;23.18;58.74;101817.94;5081551;27;46863;-78
2022/06/16 07:25:46;;;;;;;;;16.00;11.00;;;;;23.27;58.75;101825.09;5100005;27;45411;-80
2022/06/16 07:28:12;;;;;;;;;14.25;11.25;;;;;23.21;58.29;101818.88;5095190;27;45340;-77
2022/06/16 07:30:38;;;;;;;;;11.00;9.25;;;;;23.28;57.82;101826.88;5098846;27;45372;-77
2022/06/16 07:33:04;;;;;;;;;11.50;10.00;;;;;23.31;58.02;101826.91;5099039;27;45352;-78
2022/06/16 07:35:29;;;;;;;;;13.00;11.50;;;;;23.36;57.43;101831.31;5102055;27;45455;-78
2022/06/16 07:37:55;;;;;;;;;14.00;11.75;;;;;23.42;57.32;101831.38;5084494;27;45477;-77
2022/06/16 07:40:21;;;;;;;;;11.00;10.25;;;;;23.46;56.37;101841.09;5099145;27;45526;-78
2022/06/16 07:42:47;;;;;;;;;11.00;10.25;;;;;23.48;56.27;101845.53;5096896;27;46161;-78
2022/06/16 07:45:14;;;;;;;;;14.00;11.25;;;;;23.54;54.87;101846.44;5085063;27;45309;-78
2022/06/16 07:47:41;;;;;;;;;8.50;8.50;;;;;23.54;53.59;101834.09;5079491;27;45350;-78
2022/06/16 07:50:08;;;;;;;;;11.25;11.25;;;;;23.59;54.02;101847.38;5078760;28;45271;-77
2022/06/16 07:52:35;;;;;;;;;9.00;9.00;;;;;23.63;53.30;101852.69;5076335;27;46769;-77
2022/06/16 07:55:02;;;;;;;;;10.50;9.00;;;;;23.61;52.60;101835.03;5078499;27;45813;-77
2022/06/16 07:57:30;;;;;;;;;10.00;8.00;;;;;23.65;52.47;101834.19;5076542;27;45843;-78
2022/06/16 07:59:57;;;;;;;;;10.00;9.50;;;;;23.70;51.91;101824.53;5078577;27;45642;-78
2022/06/16 08:02:23;;;;;;;;;11.00;9.00;;;;;23.76;51.91;101835.16;5083414;27;46145;-77
2022/06/16 08:04:48;;;;;;;;;9.75;9.25;;;;;23.75;51.76;101828.09;5101598;27;45367;-77
2022/06/16 08:07:14;;;;;;;;;9.25;8.25;;;;;23.83;50.22;101835.16;5097975;27;45319;-78
2022/06/16 08:09:40;;;;;;;;;8.50;7.25;;;;;23.85;50.50;101839.63;5089087;27;45268;-78
2022/06/16 08:12:10;;;;;;;;;9.00;8.50;;;;;23.86;49.97;101844.03;5092748;27;45454;-78
2022/06/16 08:14:44;;;;;;;;;8.00;8.00;;;;;23.88;49.81;101844.03;5084106;27;45620;-78
2022/06/16 08:17:17;;;;;;;;;10.75;8.75;;;;;23.90;49.38;101837.00;5078133;27;45193;-78
2022/06/16 08:19:43;;;;;;;;;11.25;8.00;;;;;23.94;49.42;101842.31;5081507;27;45552;-78
2022/06/16 08:22:09;;;;;;;;;8.50;8.50;;;;;23.99;48.92;101841.47;5065025;28;45792;-78
2022/06/16 08:24:35;;;;;;;;;10.50;8.75;;;;;24.00;47.55;101843.25;5077200;28;45642;-78
2022/06/16 08:27:02;;;;;;;;;12.00;9.00;;;;;24.05;46.90;101838.88;5077705;27;45387;-78
2022/06/16 08:29:28;;;;;;;;;7.75;7.25;;;;;24.09;46.59;101838.91;5076453;27;45424;-77
2022/06/16 08:31:56;;;;;;;;;9.00;9.00;;;;;24.13;46.33;101838.91;5078321;28;46480;-78
2022/06/16 08:34:22;;;;;;;;;10.25;9.25;;;;;24.16;46.92;101842.47;5092057;27;45512;-78
2022/06/16 08:36:47;;;;;;;;;5.50;5.50;;;;;24.20;46.40;101841.56;5086460;27;45566;-78
2022/06/16 08:39:13;;;;;;;;;9.25;6.00;;;;;24.23;45.30;101840.72;5078127;28;45315;-78
2022/06/16 08:41:53;;;;;;;;;8.25;6.50;;;;;24.27;44.21;101835.44;5080607;27;45880;-76
2022/06/16 08:44:39;;;;;;;;;11.75;8.00;;;;;24.27;43.43;101827.50;5058017;28;45558;-77
2022/06/16 08:47:13;;;;;;;;;10.00;8.25;;;;;24.38;44.02;101843.41;5073538;27;45556;-78
2022/06/16 08:50:02;;;;;;;;;8.50;8.50;;;;;24.40;43.58;101835.50;5074273;27;45448;-78
2022/06/16 08:53:06;;;;;;;;;8.75;7.50;;;;;24.50;42.29;101844.34;5077019;28;45647;-79
2022/06/16 08:56:07;;;;;;;;;9.50;9.50;;;;;24.54;41.99;101846.13;5076585;27;45412;-78
2022/06/16 08:58:36;;;;;;;;;8.25;6.75;;;;;24.57;42.23;101840.81;5067655;27;45525;-78
2022/06/16 09:01:22;;;;;;;;;7.50;6.75;;;;;24.61;42.62;101842.63;5092500;27;45608;-79
2022/06/16 09:04:05;;;;;;;;;5.50;5.50;;;;;24.62;42.15;101836.44;5100643;27;45583;-78
2022/06/16 09:07:03;;;;;;;;;6.25;4.50;;;;;24.68;41.89;101841.78;5078010;27;45705;-79
2022/06/16 09:10:14;;;;;;;;;6.00;6.00;;;;;24.73;42.85;101834.75;5009224;27;45423;-79
2022/06/16 09:13:05;;;;;;;;;10.00;6.50;;;;;24.81;41.42;101834.75;5097833;27;45484;-79
2022/06/16 09:16:08;;;;;;;;;7.75;7.75;;;;;24.86;41.02;101832.13;5096786;27;45376;-79
2022/06/16 09:18:33;;;;;;;;;7.00;6.00;;;;;24.89;41.40;101832.09;5076398;27;45207;-79
2022/06/16 09:21:25;;;;;;;;;6.00;6.00;;;;;24.93;40.40;101836.53;5058263;28;45323;-79
2022/06/16 09:23:51;;;;;;;;;5.75;5.75;;;;;24.99;41.32;101840.94;5076041;27;45277;-79
2022/06/16 09:26:33;;;;;;;;;11.00;10.00;;;;;25.02;40.53;101833.00;5075517;28;45441;-79
2022/06/16 09:29:27;;;;;;;;;11.25;8.25;;;;;25.14;40.97;101859.53;5076532;28;45305;-80
2022/06/16 09:32:15;;;;;;;;;6.50;6.50;;;;;25.19;39.35;101847.16;5082151;28;45244;-78
2022/06/16 09:35:06;;;;;;;;;4.75;4.75;;;;;25.23;39.23;101855.97;5077769;27;45390;-78
2022/06/16 09:38:12;;;;;;;;;5.50;5.50;;;;;25.23;39.10;101842.72;5076385;27;46317;-80
2022/06/16 09:40:45;;;;;;;;;5.50;5.50;;;;;25.28;39.47;101840.06;5075924;28;45850;-79
2022/06/16 09:43:42;;;;;;;;;7.25;6.75;;;;;25.27;39.85;101836.56;5076753;27;45817;-79
2022/06/16 09:46:30;;;;;;;;;8.25;6.00;;;;;25.37;39.25;101833.91;5054684;28;45446;-79
2022/06/16 09:49:13;;;;;;;;;8.25;6.75;;;;;25.32;39.52;101815.34;5076264;27;45488;-79
2022/06/16 09:52:03;;;;;;;;;8.00;8.00;;;;;25.44;39.37;101815.38;5076766;27;45925;-80
2022/06/16 09:54:41;;;;;;;;;7.75;7.25;;;;;25.49;39.04;101826.84;5077420;28;45375;-79
2022/06/16 09:57:22;;;;;;;;;11.00;9.50;;;;;25.48;39.31;101806.50;5077439;28;45225;-79
2022/06/16 09:59:56;;;;;;;;;4.25;4.25;;;;;25.54;38.51;101800.31;5079838;28;45421;-79
2022/06/16 10:02:26;;;;;;;;;11.75;7.75;;;;;25.63;39.45;101810.03;5079102;28;45315;-79
2022/06/16 10:04:54;;;;;;;;;8.25;7.25;;;;;25.58;38.49;101794.13;5093753;27;45275;-80
2022/06/16 10:07:27;;;;;;;;;7.75;7.75;;;;;25.64;38.72;101807.41;5077330;28;45319;-79
2022/06/16 10:10:02;;;;;;;;;6.25;6.25;;;;;25.70;38.33;101821.50;5077413;27;45423;-78
2022/06/16 10:12:37;;;;;;;;;9.75;8.75;;;;;25.69;38.15;101818.00;5057855;27;45581;-79
2022/06/16 10:15:18;;;;;;;;;7.00;6.25;;;;;25.69;38.27;101823.28;5076595;28;45450;-79
2022/06/16 10:17:46;;;;;;;;;6.50;6.50;;;;;25.72;38.54;101819.75;5076844;28;45219;-80
2022/06/16 10:20:19;;;;;;;;;6.00;6.00;;;;;25.76;38.00;101819.72;5076565;28;45273;-81
2022/06/16 10:22:52;;;;;;;;;4.75;4.75;;;;;25.80;37.65;101818.84;5076713;28;45683;-80
2022/06/16 10:25:29;;;;;;;;;8.00;6.25;;;;;25.86;38.05;101825.00;5076758;28;45266;-80
2022/06/16 10:28:23;;;;;;;;;6.25;4.50;;;;;25.92;37.22;101819.66;5082289;27;45263;-79
2022/06/16 10:30:50;;;;;;;;;5.75;5.75;;;;;25.92;36.98;101815.25;5015661;28;46809;-79
2022/06/16 10:33:20;;;;;;;;;9.50;6.50;;;;;25.95;37.40;101815.25;5058679;28;45770;-80
2022/06/16 10:35:59;;;;;;;;;7.00;6.00;;;;;26.02;37.90;101809.91;5079184;28;45456;-79
2022/06/16 10:38:31;;;;;;;;;6.00;5.00;;;;;26.09;36.88;101820.53;5087796;27;45263;-80
2022/06/16 10:40:58;;;;;;;;;10.00;8.25;;;;;26.08;37.30;101808.13;5079449;28;45571;-80
2022/06/16 10:43:26;;;;;;;;;6.25;6.25;;;;;26.17;37.67;101812.56;5080202;27;45359;-79
2022/06/16 10:46:18;;;;;;;;;9.00;8.25;;;;;26.16;37.00;101802.81;5080364;28;45412;-79
2022/06/16 10:48:55;;;;;;;;;8.00;8.00;;;;;26.20;37.81;101795.72;5080046;28;45272;-79
2022/06/16 10:51:25;;;;;;;;;8.75;7.75;;;;;26.19;38.09;101799.28;5077275;27;46201;-79
2022/06/16 10:54:00;;;;;;;;;11.75;8.75;;;;;26.25;37.47;101812.50;5052818;28;45797;-83
2022/06/16 10:56:27;;;;;;;;;7.50;6.00;;;;;26.25;37.61;101813.41;5079632;27;45474;-80
2022/06/16 10:59:17;;;;;;;;;5.75;5.75;;;;;26.31;37.44;101807.19;5088175;28;45700;-81
2022/06/16 11:02:00;;;;;;;;;8.00;7.25;;;;;26.40;36.16;101806.25;5085555;27;46406;-81
2022/06/16 11:04:38;;;;;;;;;7.00;7.00;;;;;26.41;36.30;101805.34;5068612;27;45730;-83
2022/06/16 11:07:06;;;;;;;;;8.00;7.00;;;;;26.50;35.89;101809.72;5085049;28;45342;-82
2022/06/16 11:09:34;;;;;;;;;9.50;6.25;;;;;26.48;36.40;101804.44;5065269;28;45569;-82
2022/06/16 11:12:13;;;;;;;;;9.00;6.75;;;;;26.62;35.99;101808.78;5098268;27;46477;-83
2022/06/16 11:14:49;;;;;;;;;8.25;6.50;;;;;26.65;35.90;101812.31;5100760;27;45382;-80
2022/06/16 11:17:19;;;;;;;;;7.75;7.75;;;;;26.71;36.00;101800.75;5069837;28;45524;-80
2022/06/16 11:19:51;;;;;;;;;8.75;8.75;;;;;26.65;36.10;101798.13;5082546;28;45565;-79
2022/06/16 11:22:27;;;;;;;;;6.00;5.75;;;;;26.76;36.30;101808.69;5055295;28;45589;-81
2022/06/16 11:25:20;;;;;;;;;8.00;8.00;;;;;26.78;36.39;101801.63;5082536;27;45228;-83
2022/06/16 11:27:56;;;;;;;;;6.25;6.25;;;;;26.84;36.26;101815.72;5099445;27;45356;-80
2022/06/16 11:30:28;;;;;;;;;5.75;5.75;;;;;26.84;36.82;101818.38;5077873;27;45391;-81
2022/06/16 11:32:53;;;;;;;;;10.00;7.00;;;;;26.85;35.20;101808.66;5082997;27;45633;-81
2022/06/16 11:35:26;;;;;;;;;8.00;8.00;;;;;26.88;35.40;101812.16;5069636;28;45429;-81
2022/06/16 11:38:09;;;;;;;;;9.25;8.00;;;;;26.93;35.73;101805.94;5078918;28;45337;-80
2022/06/16 11:40:49;;;;;;;;;11.25;7.00;;;;;26.94;35.99;101811.25;5079130;27;45339;-81
2022/06/16 11:43:20;;;;;;;;;7.00;7.00;;;;;27.01;35.01;101804.97;5079062;27;45347;-82
2022/06/16 11:46:10;;;;;;;;;1.25;0.75;;;;;27.01;35.36;101794.34;5062337;27;45644;-80
2022/06/16 11:48:41;;;;;;;;;9.25;9.00;;;;;27.05;35.71;101805.81;5084994;27;45579;-83
2022/06/16 11:51:07;;;;;;;;;9.00;9.00;;;;;27.10;36.48;101812.00;5079645;27;45263;-83